createdAt,value
2023-02-08T00:01:35.599Z,102958.50
2023-02-08T00:04:01.960Z,102946.72
2023-02-08T00:06:28.291Z,102948.44
2023-02-08T00:08:54.610Z,102959.50
2023-02-08T00:11:21.090Z,102955.06
2023-02-08T00:13:47.420Z,102955.06
2023-02-08T00:16:13.880Z,102957.97
2023-02-08T00:18:40.266Z,102958.81
2023-02-08T00:21:06.585Z,102946.75
2023-02-08T00:23:32.918Z,102954.22
2023-02-08T00:25:59.235Z,102952.19
2023-02-08T00:28:25.632Z,102947.25
2023-02-08T00:30:52.025Z,102947.41
2023-02-08T00:33:18.344Z,102950.84
2023-02-08T00:35:44.651Z,102959.50
2023-02-08T00:38:10.962Z,102955.75
2023-02-08T00:40:37.472Z,102955.41
2023-02-08T00:43:03.862Z,102958.31
2023-02-08T00:45:30.235Z,102953.22
2023-02-08T00:47:56.610Z,102953.53
2023-02-08T00:50:22.938Z,102942.19
2023-02-08T00:52:49.253Z,102942.53
2023-02-08T00:55:15.576Z,102942.00
2023-02-08T00:57:41.897Z,102942.00
2023-02-08T01:00:09.181Z,102939.31
2023-02-08T01:02:35.492Z,102935.06
2023-02-08T01:05:01.854Z,102934.53
2023-02-08T01:07:28.213Z,102928.59
2023-02-08T01:09:54.567Z,102937.91
2023-02-08T01:12:20.898Z,102936.09
2023-02-08T01:14:47.231Z,102927.38
2023-02-08T01:17:13.580Z,102921.59
2023-02-08T01:19:42.379Z,102928.06
2023-02-08T01:22:08.877Z,102926.56
2023-02-08T01:24:35.214Z,102928.78
2023-02-08T01:27:01.558Z,102925.72
2023-02-08T01:29:27.909Z,102916.00
2023-02-08T01:31:54.311Z,102926.19
2023-02-08T01:34:20.649Z,102915.31
2023-02-08T01:36:46.954Z,102917.50
2023-02-08T01:39:13.342Z,102921.94
2023-02-08T01:41:39.727Z,102911.56
2023-02-08T01:44:06.136Z,102928.06
2023-02-08T01:46:32.481Z,102914.13
2023-02-08T01:48:58.877Z,102921.59
2023-02-08T01:51:25.199Z,102923.81
2023-02-08T01:53:51.554Z,102909.03
2023-02-08T01:56:17.881Z,102913.25
2023-02-08T01:58:44.180Z,102918.19
2023-02-08T02:01:10.626Z,102907.50
2023-02-08T02:03:36.950Z,102901.06
2023-02-08T02:06:03.278Z,102898.47
2023-02-08T02:08:29.590Z,102900.53
2023-02-08T02:10:55.917Z,102906.66
2023-02-08T02:13:22.252Z,102901.88
2023-02-08T02:15:48.820Z,102908.19
2023-02-08T02:18:15.127Z,102902.22
2023-02-08T02:20:41.740Z,102900.34
2023-02-08T02:23:08.295Z,102901.56
2023-02-08T02:25:34.617Z,102902.22
2023-02-08T02:28:01.002Z,102900.87
2023-02-08T02:30:27.346Z,102903.25
2023-02-08T02:32:53.678Z,102901.72
2023-02-08T02:35:20.012Z,102901.37
2023-02-08T02:37:49.217Z,102892.38
2023-02-08T02:40:15.517Z,102903.44
2023-02-08T02:43:00.720Z,102898.13
2023-02-08T02:45:27.056Z,102900.00
2023-02-08T02:47:53.401Z,102901.22
2023-02-08T02:50:19.784Z,102901.72
2023-02-08T02:52:46.136Z,102897.28
2023-02-08T02:55:12.444Z,102893.03
2023-02-08T02:57:38.761Z,102895.41
2023-02-08T03:00:05.079Z,102891.50
2023-02-08T03:02:31.389Z,102894.91
2023-02-08T03:04:57.716Z,102887.75
2023-02-08T03:07:24.041Z,102894.56
2023-02-08T03:09:50.538Z,102891.16
2023-02-08T03:12:16.905Z,102892.19
2023-02-08T03:14:43.224Z,102882.66
2023-02-08T03:17:09.538Z,102893.88
2023-02-08T03:19:36.280Z,102899.66
2023-02-08T03:22:02.661Z,102893.38
2023-02-08T03:24:29.007Z,102893.88
2023-02-08T03:26:55.426Z,102893.03
2023-02-08T03:29:21.729Z,102895.56
2023-02-08T03:31:48.135Z,102898.63
2023-02-08T03:34:14.605Z,102899.62
2023-02-08T03:36:40.926Z,102904.22
2023-02-08T03:39:07.672Z,102907.09
2023-02-08T03:41:34.070Z,102912.38
2023-02-08T03:44:00.398Z,102921.69
2023-02-08T03:46:26.825Z,102918.63
2023-02-08T03:48:53.158Z,102920.28
2023-02-08T03:51:19.476Z,102924.38
2023-02-08T03:53:45.785Z,102923.00
2023-02-08T03:56:12.174Z,102933.88
2023-02-08T03:58:38.495Z,102926.38
2023-02-08T04:01:04.839Z,102930.16
2023-02-08T04:03:31.185Z,102937.63
2023-02-08T04:05:57.507Z,102928.28
2023-02-08T04:08:23.875Z,102933.88
2023-02-08T04:10:50.202Z,102942.91
2023-02-08T04:13:16.590Z,102933.56
2023-02-08T04:15:44.456Z,102934.41
2023-02-08T04:18:10.839Z,102936.44
2023-02-08T04:20:37.183Z,102928.09
2023-02-08T04:23:03.579Z,102932.16
2023-02-08T04:25:29.909Z,102928.97
2023-02-08T04:27:56.216Z,102932.16
2023-02-08T04:30:22.545Z,102942.28
2023-02-08T04:32:48.897Z,102932.31
2023-02-08T04:35:15.216Z,102938.78
2023-02-08T04:37:41.535Z,102929.91
2023-02-08T04:40:07.837Z,102923.09
2023-02-08T04:42:34.237Z,102931.59
2023-02-08T04:45:00.576Z,102931.25
2023-02-08T04:47:26.895Z,102923.41
2023-02-08T04:49:53.237Z,102926.59
2023-02-08T04:52:19.551Z,102921.19
2023-02-08T04:54:45.883Z,102916.22
2023-02-08T04:57:12.228Z,102923.88
2023-02-08T04:59:38.532Z,102918.94
2023-02-08T05:02:04.993Z,102907.06
2023-02-08T05:04:31.300Z,102913.00
2023-02-08T05:06:57.625Z,102913.63
2023-02-08T05:09:24.063Z,102913.34
2023-02-08T05:11:50.400Z,102900.13
2023-02-08T05:14:16.715Z,102905.84
2023-02-08T05:16:43.063Z,102910.78
2023-02-08T05:19:09.380Z,102905.53
2023-02-08T05:21:35.702Z,102908.25
2023-02-08T05:24:02.022Z,102904.87
2023-02-08T05:26:28.438Z,102905.94
2023-02-08T05:28:54.759Z,102907.81
2023-02-08T05:31:21.364Z,102908.34
2023-02-08T05:33:47.724Z,102912.28
2023-02-08T05:36:14.031Z,102917.00
2023-02-08T05:38:40.335Z,102916.00
2023-02-08T05:41:06.640Z,102917.53
2023-02-08T05:43:32.993Z,102923.34
2023-02-08T05:45:59.314Z,102917.75
2023-02-08T05:48:25.695Z,102909.62
2023-02-08T05:50:52.062Z,102920.31
2023-02-08T05:53:18.428Z,102921.16
2023-02-08T05:55:45.100Z,102922.91
2023-02-08T05:58:11.393Z,102926.97
2023-02-08T06:00:37.714Z,102914.25
2023-02-08T06:03:04.148Z,102922.25
2023-02-08T06:05:30.562Z,102920.22
2023-02-08T06:07:56.858Z,102913.78
2023-02-08T06:10:23.177Z,102925.16
2023-02-08T06:12:49.479Z,102918.88
2023-02-08T06:15:15.795Z,102931.28
2023-02-08T06:17:42.105Z,102932.66
2023-02-08T06:20:08.424Z,102934.53
2023-02-08T06:22:34.793Z,102929.59
2023-02-08T06:25:01.093Z,102926.72
2023-02-08T06:27:27.712Z,102922.13
2023-02-08T06:29:54.064Z,102929.06
2023-02-08T06:32:20.424Z,102933.31
2023-02-08T06:34:48.354Z,102936.38
2023-02-08T06:37:14.678Z,102941.13
2023-02-08T06:39:41.547Z,102930.75
2023-02-08T06:42:07.879Z,102941.97
2023-02-08T06:44:34.196Z,102942.63
2023-02-08T06:47:00.524Z,102947.09
2023-02-08T06:49:26.842Z,102944.50
2023-02-08T06:51:53.155Z,102948.59
2023-02-08T06:54:19.511Z,102949.13
2023-02-08T06:56:45.826Z,102955.56
2023-02-08T06:59:12.138Z,102960.34
2023-02-08T07:01:38.461Z,102962.53
2023-02-08T07:04:04.785Z,102950.94
2023-02-08T07:06:31.088Z,102963.84
2023-02-08T07:08:57.405Z,102957.38
2023-02-08T07:11:23.720Z,102966.06
2023-02-08T07:13:50.063Z,102970.28
2023-02-08T07:16:16.454Z,102966.88
2023-02-08T07:18:42.769Z,102962.59
2023-02-08T07:21:10.642Z,102969.34
2023-02-08T07:23:36.983Z,102968.19
2023-02-08T07:26:03.286Z,102968.47
2023-02-08T07:28:29.592Z,102962.78
2023-02-08T07:30:55.922Z,102959.53
2023-02-08T07:33:22.216Z,102962.53
2023-02-08T07:35:48.526Z,102943.25
2023-02-08T07:38:14.860Z,102954.88
2023-02-08T07:40:41.492Z,102960.19
2023-02-08T07:43:07.989Z,102958.94
2023-02-08T07:45:34.414Z,102961.13
2023-02-08T07:48:00.740Z,102955.00
2023-02-08T07:50:27.043Z,102960.78
2023-02-08T07:52:53.389Z,102961.22
2023-02-08T07:55:20.597Z,102948.94
2023-02-08T07:57:47.436Z,102960.69
2023-02-08T08:00:13.757Z,102957.47
2023-02-08T08:02:40.122Z,102954.25
2023-02-08T08:05:06.443Z,102959.16
2023-02-08T08:07:32.803Z,102957.66
2023-02-08T08:09:59.184Z,102970.75
2023-02-08T08:12:25.569Z,102980.41
2023-02-08T08:14:51.888Z,102966.81
2023-02-08T08:17:18.211Z,102979.66
2023-02-08T08:19:44.549Z,102985.78
2023-02-08T08:22:10.843Z,102976.19
2023-02-08T08:24:37.279Z,102976.56
2023-02-08T08:27:04.756Z,102983.09
2023-02-08T08:29:31.203Z,102977.50
2023-02-08T08:31:57.534Z,102987.03
2023-02-08T08:34:29.823Z,102978.44
2023-02-08T08:36:56.162Z,102989.41
2023-02-08T08:39:22.504Z,102983.44
2023-02-08T08:41:48.814Z,102984.22
2023-02-08T08:44:15.151Z,102978.66
2023-02-08T08:46:41.665Z,102983.66
2023-02-08T08:49:08.014Z,102977.62
2023-02-08T08:51:35.552Z,102976.00
2023-02-08T08:54:01.892Z,102974.06
2023-02-08T08:56:28.238Z,102977.44
2023-02-08T08:58:54.550Z,102985.69
2023-02-08T09:01:21.023Z,102980.69
2023-02-08T09:03:47.395Z,102985.06
2023-02-08T09:06:13.738Z,102982.78
2023-02-08T09:08:40.074Z,102986.53
2023-02-08T09:11:06.439Z,102988.00
2023-02-08T09:13:32.756Z,102985.47
2023-02-08T09:15:59.274Z,102975.81
2023-02-08T09:18:25.638Z,102975.63
2023-02-08T09:20:51.958Z,102983.88
2023-02-08T09:23:18.277Z,102979.69
2023-02-08T09:25:44.674Z,102979.91
2023-02-08T09:28:11.122Z,102974.78
2023-02-08T09:30:37.530Z,102986.88
2023-02-08T09:33:03.840Z,102982.44
2023-02-08T09:35:30.408Z,102987.19
2023-02-08T09:37:58.296Z,102982.59
2023-02-08T09:40:24.710Z,102986.47
2023-02-08T09:42:51.018Z,102994.38
2023-02-08T09:45:17.357Z,102995.03
2023-02-08T09:47:43.674Z,102995.13
2023-02-08T09:50:09.984Z,102997.03
2023-02-08T09:52:36.338Z,102987.00
2023-02-08T09:55:02.702Z,102989.84
2023-02-08T09:57:29.053Z,102996.13
2023-02-08T09:59:55.434Z,102994.09
2023-02-08T10:02:21.749Z,102995.25
2023-02-08T10:04:48.056Z,103007.81
2023-02-08T10:07:14.405Z,103002.13
2023-02-08T10:09:40.728Z,102994.66
2023-02-08T10:12:07.087Z,102995.00
2023-02-08T10:14:33.404Z,102997.59
2023-02-08T10:16:59.897Z,102994.03
2023-02-08T10:19:26.201Z,102991.69
2023-02-08T10:21:52.495Z,102982.81
2023-02-08T10:24:18.812Z,102993.56
2023-02-08T10:26:45.216Z,102982.41
2023-02-08T10:29:11.566Z,102975.59
2023-02-08T10:31:38.016Z,102980.19
2023-02-08T10:34:05.513Z,102980.25
2023-02-08T10:36:33.340Z,102986.22
2023-02-08T10:38:59.657Z,102983.25
2023-02-08T10:41:25.970Z,102981.16
2023-02-08T10:43:52.573Z,102977.75
2023-02-08T10:46:18.995Z,102968.84
2023-02-08T10:48:45.347Z,102965.50
2023-02-08T10:51:11.876Z,102963.81
2023-02-08T10:53:38.255Z,102956.41
2023-02-08T10:56:04.590Z,102962.53
2023-02-08T10:58:30.984Z,102955.78
2023-02-08T11:00:58.616Z,102943.72
2023-02-08T11:03:25.034Z,102938.03
2023-02-08T11:05:51.602Z,102932.72
2023-02-08T11:08:19.776Z,102928.84
2023-02-08T11:10:46.099Z,102925.75
2023-02-08T11:13:12.418Z,102925.69
2023-02-08T11:15:39.038Z,102917.91
2023-02-08T11:18:05.358Z,102910.75
2023-02-08T11:20:31.753Z,102916.59
2023-02-08T11:22:58.067Z,102914.28
2023-02-08T11:25:24.391Z,102916.19
2023-02-08T11:27:50.831Z,102922.69
2023-02-08T11:30:18.125Z,102917.47
2023-02-08T11:32:44.445Z,102919.72
2023-02-08T11:35:10.766Z,102918.88
2023-02-08T11:37:37.121Z,102916.94
2023-02-08T11:40:03.970Z,102925.84
2023-02-08T11:42:30.340Z,102920.84
2023-02-08T11:44:56.679Z,102913.41
2023-02-08T11:47:22.997Z,102903.56
2023-02-08T11:49:49.325Z,102903.97
2023-02-08T11:52:15.634Z,102911.97
2023-02-08T11:54:42.063Z,102903.91
2023-02-08T11:57:08.389Z,102916.56
2023-02-08T11:59:34.720Z,102905.00
2023-02-08T12:02:01.031Z,102906.31
2023-02-08T12:04:27.345Z,102902.31
2023-02-08T12:06:53.674Z,102901.94
2023-02-08T12:09:19.977Z,102890.50
2023-02-08T12:11:46.305Z,102904.94
2023-02-08T12:14:13.104Z,102915.03
2023-02-08T12:16:39.515Z,102903.19
2023-02-08T12:19:05.895Z,102901.31
2023-02-08T12:21:32.204Z,102906.41
2023-02-08T12:23:59.240Z,102898.38
2023-02-08T12:26:25.564Z,102899.03
2023-02-08T12:28:51.906Z,102893.81
2023-02-08T12:31:18.364Z,102890.03
2023-02-08T12:33:44.722Z,102875.00
2023-02-08T12:36:11.456Z,102869.12
2023-02-08T12:38:56.954Z,102878.03
2023-02-08T12:41:23.584Z,102878.72
2023-02-08T12:43:49.988Z,102868.00
2023-02-08T12:46:16.308Z,102871.47
2023-02-08T12:48:42.634Z,102885.09
2023-02-08T12:51:08.999Z,102865.38
2023-02-08T12:53:35.341Z,102874.03
2023-02-08T12:56:01.655Z,102875.75
2023-02-08T12:58:28.021Z,102869.16
2023-02-08T13:00:54.395Z,102879.31
2023-02-08T13:03:20.738Z,102870.28
2023-02-08T13:06:01.355Z,102872.50
2023-02-08T13:08:28.699Z,102866.22
2023-02-08T13:10:55.028Z,102864.09
2023-02-08T13:13:21.341Z,102859.25
2023-02-08T13:15:47.888Z,102862.38
2023-02-08T13:18:14.298Z,102852.06
2023-02-08T13:20:40.654Z,102851.22
2023-02-08T13:23:06.975Z,102841.28
2023-02-08T13:25:33.311Z,102836.13
2023-02-08T13:27:59.659Z,102833.44
2023-02-08T13:30:26.036Z,102833.59
2023-02-08T13:32:52.379Z,102824.81
2023-02-08T13:35:18.700Z,102815.72
2023-02-08T13:37:45.042Z,102826.19
2023-02-08T13:40:11.409Z,102809.06
2023-02-08T13:42:38.167Z,102814.81
2023-02-08T13:45:04.474Z,102803.16
2023-02-08T13:47:30.779Z,102808.84
2023-02-08T13:49:57.164Z,102812.66
2023-02-08T13:52:23.483Z,102802.63
2023-02-08T13:54:49.789Z,102813.72
2023-02-08T13:57:16.100Z,102801.81
2023-02-08T13:59:42.533Z,102808.78
2023-02-08T14:02:08.862Z,102812.38
2023-02-08T14:04:35.272Z,102812.50
2023-02-08T14:07:01.634Z,102801.84
2023-02-08T14:09:28.056Z,102815.78
2023-02-08T14:11:54.442Z,102805.47
2023-02-08T14:14:20.803Z,102807.94
2023-02-08T14:16:47.144Z,102802.84
2023-02-08T14:19:13.467Z,102806.53
2023-02-08T14:21:39.867Z,102803.09
2023-02-08T14:24:06.315Z,102797.59
2023-02-08T14:26:32.716Z,102794.84
2023-02-08T14:28:59.087Z,102800.00
2023-02-08T14:31:26.201Z,102813.97
2023-02-08T14:33:53.075Z,102809.91
2023-02-08T14:36:19.412Z,102799.37
2023-02-08T14:38:45.738Z,102805.09
2023-02-08T14:41:12.059Z,102791.59
2023-02-08T14:43:38.449Z,102794.75
2023-02-08T14:46:04.774Z,102793.25
2023-02-08T14:48:31.158Z,102792.22
2023-02-08T14:50:57.496Z,102797.97
2023-02-08T14:53:23.803Z,102805.38
2023-02-08T14:55:50.342Z,102791.88
2023-02-08T14:58:16.709Z,102792.31
2023-02-08T15:00:43.035Z,102786.16
2023-02-08T15:03:09.338Z,102796.75
2023-02-08T15:05:35.670Z,102797.59
2023-02-08T15:08:02.116Z,102793.38
2023-02-08T15:10:30.305Z,102786.19
2023-02-08T15:12:57.765Z,102795.69
2023-02-08T15:15:24.181Z,102791.25
2023-02-08T15:17:50.581Z,102789.31
2023-02-08T15:20:17.036Z,102797.41
2023-02-08T15:22:43.393Z,102786.63
2023-02-08T15:25:09.714Z,102798.28
2023-02-08T15:27:36.069Z,102782.00
2023-02-08T15:30:02.434Z,102784.75
2023-02-08T15:32:28.778Z,102771.44
2023-02-08T15:34:55.154Z,102775.25
2023-02-08T15:37:21.487Z,102774.81
2023-02-08T15:39:47.810Z,102767.88
2023-02-08T15:42:14.124Z,102758.34
2023-02-08T15:44:40.454Z,102768.09
2023-02-08T15:47:06.753Z,102757.50
2023-02-08T15:49:33.146Z,102757.12
2023-02-08T15:51:59.481Z,102748.28
2023-02-08T15:54:25.913Z,102742.31
2023-02-08T15:56:52.278Z,102748.47
2023-02-08T15:59:18.602Z,102742.81
2023-02-08T16:01:44.924Z,102748.09
2023-02-08T16:04:12.716Z,102744.72
2023-02-08T16:06:39.178Z,102747.44
2023-02-08T16:09:05.902Z,102740.88
2023-02-08T16:11:32.262Z,102746.62
2023-02-08T16:13:58.591Z,102741.09
2023-02-08T16:16:30.124Z,102732.50
2023-02-08T16:18:58.424Z,102731.78
2023-02-08T16:21:24.830Z,102739.63
2023-02-08T16:23:51.354Z,102738.44
2023-02-08T16:26:17.927Z,102736.62
2023-02-08T16:28:44.336Z,102740.91
2023-02-08T16:31:11.527Z,102747.34
2023-02-08T16:33:39.676Z,102742.22
2023-02-08T16:36:06.013Z,102743.88
2023-02-08T16:38:32.400Z,102749.34
2023-02-08T16:41:12.075Z,102741.25
2023-02-08T16:43:40.280Z,102739.47
2023-02-08T16:46:06.605Z,102733.47
2023-02-08T16:48:34.967Z,102727.41
2023-02-08T16:51:01.300Z,102733.50
2023-02-08T16:53:40.255Z,102721.84
2023-02-08T16:56:08.137Z,102731.25
2023-02-08T16:58:34.485Z,102725.97
2023-02-08T17:01:00.875Z,102722.38
2023-02-08T17:03:27.319Z,102721.78
2023-02-08T17:05:53.652Z,102717.75
2023-02-08T17:08:19.962Z,102716.72
2023-02-08T17:10:48.609Z,102724.16
2023-02-08T17:13:20.804Z,102722.25
2023-02-08T17:15:47.831Z,102728.34
2023-02-08T17:18:14.392Z,102725.44
2023-02-08T17:20:40.741Z,102725.22
2023-02-08T17:23:07.089Z,102716.31
2023-02-08T17:25:37.117Z,102734.31
2023-02-08T17:28:03.478Z,102727.56
2023-02-08T17:30:29.796Z,102729.44
2023-02-08T17:32:59.320Z,102723.97
2023-02-08T17:35:25.653Z,102721.84
2023-02-08T17:37:53.988Z,102709.38
2023-02-08T17:40:20.366Z,102707.50
2023-02-08T17:42:47.693Z,102711.72
2023-02-08T17:45:14.148Z,102711.50
2023-02-08T17:47:41.803Z,102711.72
2023-02-08T17:50:08.146Z,102708.97
2023-02-08T17:52:34.476Z,102709.16
2023-02-08T17:55:00.845Z,102704.97
2023-02-08T17:57:27.248Z,102694.16
2023-02-08T17:59:53.641Z,102698.19
2023-02-08T18:02:20.124Z,102697.31
2023-02-08T18:04:46.470Z,102703.28
2023-02-08T18:07:12.851Z,102696.09
2023-02-08T18:09:39.544Z,102699.22
2023-02-08T18:12:05.932Z,102699.19
2023-02-08T18:14:32.244Z,102696.41
2023-02-08T18:16:58.572Z,102699.62
2023-02-08T18:19:24.886Z,102688.22
2023-02-08T18:21:51.266Z,102690.31
2023-02-08T18:24:18.871Z,102690.47
2023-02-08T18:26:45.197Z,102693.66
2023-02-08T18:29:15.064Z,102693.19
2023-02-08T18:31:41.585Z,102692.62
2023-02-08T18:34:08.005Z,102700.22
2023-02-08T18:36:34.426Z,102696.34
2023-02-08T18:39:00.763Z,102696.16
2023-02-08T18:41:27.124Z,102685.97
2023-02-08T18:43:54.910Z,102687.00
2023-02-08T18:46:21.285Z,102693.09
2023-02-08T18:48:47.986Z,102687.84
2023-02-08T18:51:14.719Z,102695.84
2023-02-08T18:53:41.023Z,102694.75
2023-02-08T18:56:07.355Z,102702.50
2023-02-08T18:58:33.661Z,102696.66
2023-02-08T19:01:00.039Z,102690.94
2023-02-08T19:03:26.475Z,102677.87
2023-02-08T19:05:52.799Z,102673.34
2023-02-08T19:08:20.659Z,102675.81
2023-02-08T19:10:46.981Z,102666.75
2023-02-08T19:13:13.406Z,102666.75
2023-02-08T19:15:39.790Z,102666.69
2023-02-08T19:18:06.158Z,102654.06
2023-02-08T19:20:32.491Z,102651.31
2023-02-08T19:22:58.959Z,102648.59
2023-02-08T19:25:29.005Z,102643.47
2023-02-08T19:27:55.383Z,102636.31
2023-02-08T19:30:22.313Z,102631.06
2023-02-08T19:32:48.777Z,102619.69
2023-02-08T19:35:15.080Z,102619.06
2023-02-08T19:37:42.545Z,102611.91
2023-02-08T19:40:08.933Z,102600.13
2023-02-08T19:42:35.424Z,102606.66
2023-02-08T19:45:01.890Z,102602.56
2023-02-08T19:47:48.421Z,102600.34
2023-02-08T19:50:14.574Z,102597.59
2023-02-08T19:52:43.423Z,102583.69
2023-02-08T19:55:09.853Z,102587.50
2023-02-08T19:57:36.225Z,102578.25
2023-02-08T20:00:04.408Z,102581.84
2023-02-08T20:02:32.762Z,102585.19
2023-02-08T20:04:59.194Z,102582.47
2023-02-08T20:07:25.526Z,102584.78
2023-02-08T20:09:51.832Z,102594.09
2023-02-08T20:12:19.789Z,102583.97
2023-02-08T20:14:46.174Z,102579.75
2023-02-08T20:17:12.499Z,102572.59
2023-02-08T20:19:38.861Z,102577.03
2023-02-08T20:22:05.243Z,102570.47
2023-02-08T20:24:31.723Z,102567.12
2023-02-08T20:26:58.039Z,102559.75
2023-02-08T20:29:25.175Z,102562.25
2023-02-08T20:31:58.254Z,102548.56
2023-02-08T20:34:24.644Z,102552.97
2023-02-08T20:37:05.753Z,102546.66
2023-02-08T20:39:33.500Z,102540.53
2023-02-08T20:41:59.883Z,102547.09
2023-02-08T20:44:26.255Z,102551.09
2023-02-08T20:46:54.642Z,102548.56
2023-02-08T20:49:25.489Z,102547.72
2023-02-08T20:51:52.420Z,102533.78
2023-02-08T20:54:19.269Z,102532.09
2023-02-08T20:56:45.597Z,102534.19
2023-02-08T20:59:13.816Z,102536.72
2023-02-08T21:01:40.301Z,102535.44
2023-02-08T21:04:06.783Z,102525.34
2023-02-08T21:06:33.169Z,102513.75
2023-02-08T21:08:59.531Z,102520.31
2023-02-08T21:11:25.836Z,102504.06
2023-02-08T21:13:52.183Z,102507.84
2023-02-08T21:16:18.587Z,102514.81
2023-02-08T21:18:45.792Z,102501.34
2023-02-08T21:21:12.135Z,102507.47
2023-02-08T21:23:38.435Z,102508.50
2023-02-08T21:26:04.800Z,102499.66
2023-02-08T21:28:31.218Z,102493.78
2023-02-08T21:30:57.714Z,102496.09
2023-02-08T21:33:24.135Z,102481.13
2023-02-08T21:35:50.450Z,102476.47
2023-02-08T21:38:16.761Z,102468.06
2023-02-08T21:40:43.411Z,102470.59
2023-02-08T21:43:09.968Z,102463.66
2023-02-08T21:45:36.270Z,102460.69
2023-02-08T21:48:02.607Z,102451.84
2023-02-08T21:50:47.902Z,102449.31
2023-02-08T21:53:32.754Z,102444.84
2023-02-08T21:55:59.136Z,102445.94
2023-02-08T21:58:25.478Z,102445.94
2023-02-08T22:00:51.793Z,102432.63
2023-02-08T22:03:18.254Z,102426.75
2023-02-08T22:05:44.573Z,102411.97
2023-02-08T22:08:10.980Z,102414.06
2023-02-08T22:10:38.254Z,102413.03
2023-02-08T22:13:04.607Z,102416.37
2023-02-08T22:15:31.048Z,102407.97
2023-02-08T22:17:57.429Z,102414.50
2023-02-08T22:20:23.747Z,102410.72
2023-02-08T22:22:53.613Z,102416.59
2023-02-08T22:25:21.239Z,102413.03
2023-02-08T22:27:47.582Z,102415.53
2023-02-08T22:30:13.891Z,102417.22
2023-02-08T22:32:40.310Z,102421.25
2023-02-08T22:35:06.665Z,102421.88
2023-02-08T22:37:32.985Z,102408.19
2023-02-08T22:39:59.308Z,102414.94
2023-02-08T22:42:27.835Z,102416.19
2023-02-08T22:44:54.148Z,102407.53
2023-02-08T22:47:20.457Z,102394.25
2023-02-08T22:49:46.802Z,102397.41
2023-02-08T22:52:14.341Z,102397.88
2023-02-08T22:54:40.661Z,102390.69
2023-02-08T22:57:07.054Z,102391.31
2023-02-08T22:59:33.480Z,102406.31
2023-02-08T23:02:01.744Z,102390.09
2023-02-08T23:04:28.140Z,102383.53
2023-02-08T23:06:54.546Z,102384.16
2023-02-08T23:09:20.846Z,102377.00
2023-02-08T23:11:47.181Z,102374.88
2023-02-08T23:14:13.494Z,102375.13
2023-02-08T23:16:39.818Z,102372.19
2023-02-08T23:19:06.179Z,102373.84
2023-02-08T23:21:32.509Z,102362.66
2023-02-08T23:23:58.815Z,102362.88
2023-02-08T23:26:25.112Z,102359.94
2023-02-08T23:28:51.425Z,102362.66
2023-02-08T23:31:17.886Z,102369.22
2023-02-08T23:33:44.286Z,102361.84
2023-02-08T23:36:11.336Z,102359.75
2023-02-08T23:38:37.656Z,102361.22
2023-02-08T23:41:04.048Z,102361.03
2023-02-08T23:43:30.352Z,102354.66
2023-02-08T23:45:56.676Z,102352.59
2023-02-08T23:48:22.993Z,102343.94
2023-02-08T23:50:49.297Z,102350.47
2023-02-08T23:53:15.608Z,102339.72
2023-02-08T23:55:41.914Z,102355.94
2023-02-08T23:58:08.216Z,102343.50
